sensor_id;sensor_type;location;lat;lon;timestamp;temperature;humidity
69204;DHT22;56317;27.658;85.326;2024-02-21T00:00:13;10.30;1.00
69204;DHT22;56317;27.658;85.326;2024-02-21T00:02:41;10.30;1.00
69204;DHT22;56317;27.658;85.326;2024-02-21T00:05:08;10.30;1.00
69204;DHT22;56317;27.658;85.326;2024-02-21T00:07:35;10.30;1.00
69204;DHT22;56317;27.658;85.326;2024-02-21T00:10:03;10.40;1.00
69204;DHT22;56317;27.658;85.326;2024-02-21T00:12:31;10.40;1.00
69204;DHT22;56317;27.658;85.326;2024-02-21T00:14:58;10.40;1.00
69204;DHT22;56317;27.658;85.326;2024-02-21T00:17:25;10.30;1.00
69204;DHT22;56317;27.658;85.326;2024-02-21T00:19:52;10.30;1.00
69204;DHT22;56317;27.658;85.326;2024-02-21T00:22:19;10.30;1.00
69204;DHT22;56317;27.658;85.326;2024-02-21T00:24:46;10.30;1.00
69204;DHT22;56317;27.658;85.326;2024-02-21T00:27:13;10.30;1.00
69204;DHT22;56317;27.658;85.326;2024-02-21T00:29:41;10.30;1.00
69204;DHT22;56317;27.658;85.326;2024-02-21T00:32:08;10.30;1.00
69204;DHT22;56317;27.658;85.326;2024-02-21T00:34:35;10.30;1.00
69204;DHT22;56317;27.658;85.326;2024-02-21T00:37:02;10.40;1.00
69204;DHT22;56317;27.658;85.326;2024-02-21T00:39:29;10.50;1.00
69204;DHT22;56317;27.658;85.326;2024-02-21T00:41:56;10.50;1.00
69204;DHT22;56317;27.658;85.326;2024-02-21T00:44:24;10.50;1.00
69204;DHT22;56317;27.658;85.326;2024-02-21T00:46:51;10.50;1.00
69204;DHT22;56317;27.658;85.326;2024-02-21T00:49:19;10.60;1.00
69204;DHT22;56317;27.658;85.326;2024-02-21T00:51:46;10.60;1.00
69204;DHT22;56317;27.658;85.326;2024-02-21T00:54:13;10.70;1.00
69204;DHT22;56317;27.658;85.326;2024-02-21T00:56:40;10.70;1.00
69204;DHT22;56317;27.658;85.326;2024-02-21T00:59:07;10.70;1.00
69204;DHT22;56317;27.658;85.326;2024-02-21T01:01:34;10.70;1.00
69204;DHT22;56317;27.658;85.326;2024-02-21T01:04:01;10.80;1.00
69204;DHT22;56317;27.658;85.326;2024-02-21T01:06:29;10.80;1.00
69204;DHT22;56317;27.658;85.326;2024-02-21T01:08:57;10.80;1.00
69204;DHT22;56317;27.658;85.326;2024-02-21T01:11:24;10.80;1.00
69204;DHT22;56317;27.658;85.326;2024-02-21T01:13:51;10.90;1.00
69204;DHT22;56317;27.658;85.326;2024-02-21T01:16:19;10.90;1.00
69204;DHT22;56317;27.658;85.326;2024-02-21T01:18:46;11.00;1.00
69204;DHT22;56317;27.658;85.326;2024-02-21T01:21:13;11.10;1.00
69204;DHT22;56317;27.658;85.326;2024-02-21T01:23:40;11.10;99.90
69204;DHT22;56317;27.658;85.326;2024-02-21T01:26:07;11.10;99.90
69204;DHT22;56317;27.658;85.326;2024-02-21T01:28:35;11.10;99.90
69204;DHT22;56317;27.658;85.326;2024-02-21T01:31:04;11.00;99.90
69204;DHT22;56317;27.658;85.326;2024-02-21T01:33:32;11.00;99.90
69204;DHT22;56317;27.658;85.326;2024-02-21T01:36:06;11.00;99.90
69204;DHT22;56317;27.658;85.326;2024-02-21T01:38:34;11.00;99.90
69204;DHT22;56317;27.658;85.326;2024-02-21T01:41:01;11.00;99.90
69204;DHT22;56317;27.658;85.326;2024-02-21T01:43:28;11.10;99.90
69204;DHT22;56317;27.658;85.326;2024-02-21T01:45:57;11.20;99.90
69204;DHT22;56317;27.658;85.326;2024-02-21T01:48:25;11.20;99.90
69204;DHT22;56317;27.658;85.326;2024-02-21T01:50:54;11.30;99.90
69204;DHT22;56317;27.658;85.326;2024-02-21T01:53:27;11.50;1.00
69204;DHT22;56317;27.658;85.326;2024-02-21T01:55:56;11.50;99.90
69204;DHT22;56317;27.658;85.326;2024-02-21T01:58:24;11.60;99.90
69204;DHT22;56317;27.658;85.326;2024-02-21T02:00:52;11.70;1.00
69204;DHT22;56317;27.658;85.326;2024-02-21T02:03:20;11.80;99.90
69204;DHT22;56317;27.658;85.326;2024-02-21T02:05:49;11.90;99.90
69204;DHT22;56317;27.658;85.326;2024-02-21T02:08:19;12.00;99.90
69204;DHT22;56317;27.658;85.326;2024-02-21T02:10:46;12.10;99.90
69204;DHT22;56317;27.658;85.326;2024-02-21T02:13:15;12.20;99.90
69204;DHT22;56317;27.658;85.326;2024-02-21T02:15:44;12.30;99.90
69204;DHT22;56317;27.658;85.326;2024-02-21T02:18:12;12.50;1.00
69204;DHT22;56317;27.658;85.326;2024-02-21T02:20:41;12.60;99.90
69204;DHT22;56317;27.658;85.326;2024-02-21T02:23:11;12.80;99.90
69204;DHT22;56317;27.658;85.326;2024-02-21T02:25:42;13.30;99.90
69204;DHT22;56317;27.658;85.326;2024-02-21T02:28:13;13.70;1.00
69204;DHT22;56317;27.658;85.326;2024-02-21T02:30:40;14.10;1.00
69204;DHT22;56317;27.658;85.326;2024-02-21T02:33:11;14.30;99.90
69204;DHT22;56317;27.658;85.326;2024-02-21T02:35:39;14.70;1.00
69204;DHT22;56317;27.658;85.326;2024-02-21T02:38:06;14.80;99.90
69204;DHT22;56317;27.658;85.326;2024-02-21T02:40:34;14.90;51.70
69204;DHT22;56317;27.658;85.326;2024-02-21T02:43:01;14.90;1.00
69204;DHT22;56317;27.658;85.326;2024-02-21T02:45:29;14.80;1.00
69204;DHT22;56317;27.658;85.326;2024-02-21T02:47:58;14.80;1.00
69204;DHT22;56317;27.658;85.326;2024-02-21T02:50:26;15.00;1.00
69204;DHT22;56317;27.658;85.326;2024-02-21T02:52:54;15.10;99.90
69204;DHT22;56317;27.658;85.326;2024-02-21T02:55:22;15.00;99.90
69204;DHT22;56317;27.658;85.326;2024-02-21T02:57:49;14.90;1.00
69204;DHT22;56317;27.658;85.326;2024-02-21T03:00:16;14.50;90.40
69204;DHT22;56317;27.658;85.326;2024-02-21T03:02:49;14.30;99.90
69204;DHT22;56317;27.658;85.326;2024-02-21T03:05:18;14.00;99.90
69204;DHT22;56317;27.658;85.326;2024-02-21T03:07:47;14.10;99.90
69204;DHT22;56317;27.658;85.326;2024-02-21T03:10:18;14.30;99.90
69204;DHT22;56317;27.658;85.326;2024-02-21T03:12:46;15.00;99.90
69204;DHT22;56317;27.658;85.326;2024-02-21T03:15:14;15.70;64.30
69204;DHT22;56317;27.658;85.326;2024-02-21T03:17:41;15.60;1.00
69204;DHT22;56317;27.658;85.326;2024-02-21T03:20:09;15.40;1.00
69204;DHT22;56317;27.658;85.326;2024-02-21T03:22:43;15.10;1.00
69204;DHT22;56317;27.658;85.326;2024-02-21T03:25:10;15.00;1.00
69204;DHT22;56317;27.658;85.326;2024-02-21T03:27:39;14.90;1.00
69204;DHT22;56317;27.658;85.326;2024-02-21T03:30:06;15.00;1.00
69204;DHT22;56317;27.658;85.326;2024-02-21T03:32:34;15.10;1.00
69204;DHT22;56317;27.658;85.326;2024-02-21T03:35:01;14.80;1.00
69204;DHT22;56317;27.658;85.326;2024-02-21T03:37:30;14.60;1.00
69204;DHT22;56317;27.658;85.326;2024-02-21T03:39:57;15.30;1.00
69204;DHT22;56317;27.658;85.326;2024-02-21T03:42:24;16.20;1.00
69204;DHT22;56317;27.658;85.326;2024-02-21T03:44:52;17.10;1.00
69204;DHT22;56317;27.658;85.326;2024-02-21T03:47:21;18.20;99.90
69204;DHT22;56317;27.658;85.326;2024-02-21T03:49:49;19.40;99.90
69204;DHT22;56317;27.658;85.326;2024-02-21T03:52:17;20.00;1.00
69204;DHT22;56317;27.658;85.326;2024-02-21T03:54:44;20.20;1.00
69204;DHT22;56317;27.658;85.326;2024-02-21T03:57:11;20.00;1.00
69204;DHT22;56317;27.658;85.326;2024-02-21T03:59:40;19.80;1.00
69204;DHT22;56317;27.658;85.326;2024-02-21T04:02:09;19.90;1.00
69204;DHT22;56317;27.658;85.326;2024-02-21T04:04:36;20.00;1.00
69204;DHT22;56317;27.658;85.326;2024-02-21T04:07:04;19.40;1.00
69204;DHT22;56317;27.658;85.326;2024-02-21T04:09:35;19.70;1.00
69204;DHT22;56317;27.658;85.326;2024-02-21T04:12:03;20.70;1.00
69204;DHT22;56317;27.658;85.326;2024-02-21T04:14:30;21.50;1.00
69204;DHT22;56317;27.658;85.326;2024-02-21T04:16:57;22.10;1.00
69204;DHT22;56317;27.658;85.326;2024-02-21T04:19:31;22.60;99.90
69204;DHT22;56317;27.658;85.326;2024-02-21T04:21:59;23.00;99.90
69204;DHT22;56317;27.658;85.326;2024-02-21T04:24:27;23.20;99.90
69204;DHT22;56317;27.658;85.326;2024-02-21T04:26:54;24.20;99.90
69204;DHT22;56317;27.658;85.326;2024-02-21T04:29:23;23.40;99.90
69204;DHT22;56317;27.658;85.326;2024-02-21T04:31:51;22.70;99.90
69204;DHT22;56317;27.658;85.326;2024-02-21T04:34:22;22.20;99.90
69204;DHT22;56317;27.658;85.326;2024-02-21T04:36:50;21.70;99.90
69204;DHT22;56317;27.658;85.326;2024-02-21T04:39:18;21.60;99.90
69204;DHT22;56317;27.658;85.326;2024-02-21T04:41:45;22.00;99.90
69204;DHT22;56317;27.658;85.326;2024-02-21T04:44:13;22.00;99.90
69204;DHT22;56317;27.658;85.326;2024-02-21T04:46:54;21.20;99.90
69204;DHT22;56317;27.658;85.326;2024-02-21T04:49:22;22.30;99.90
69204;DHT22;56317;27.658;85.326;2024-02-21T04:51:50;24.00;99.90
69204;DHT22;56317;27.658;85.326;2024-02-21T04:54:18;25.40;99.90
69204;DHT22;56317;27.658;85.326;2024-02-21T04:56:45;26.20;99.90
69204;DHT22;56317;27.658;85.326;2024-02-21T04:59:14;26.50;99.90
69204;DHT22;56317;27.658;85.326;2024-02-21T05:01:41;25.60;99.90
69204;DHT22;56317;27.658;85.326;2024-02-21T05:04:09;24.40;99.90
69204;DHT22;56317;27.658;85.326;2024-02-21T05:06:40;25.80;99.90
69204;DHT22;56317;27.658;85.326;2024-02-21T05:09:08;28.00;99.90
69204;DHT22;56317;27.658;85.326;2024-02-21T05:11:36;28.40;99.90
69204;DHT22;56317;27.658;85.326;2024-02-21T05:14:08;28.50;99.90
69204;DHT22;56317;27.658;85.326;2024-02-21T05:16:35;28.20;99.90
69204;DHT22;56317;27.658;85.326;2024-02-21T05:19:03;28.00;99.90
69204;DHT22;56317;27.658;85.326;2024-02-21T05:21:30;27.60;99.90
69204;DHT22;56317;27.658;85.326;2024-02-21T05:23:58;27.40;99.90
69204;DHT22;56317;27.658;85.326;2024-02-21T05:26:27;28.30;99.90
69204;DHT22;56317;27.658;85.326;2024-02-21T05:28:54;27.70;99.90
69204;DHT22;56317;27.658;85.326;2024-02-21T05:31:21;27.50;99.90
69204;DHT22;56317;27.658;85.326;2024-02-21T05:33:49;28.30;99.90
69204;DHT22;56317;27.658;85.326;2024-02-21T05:36:22;31.10;99.90
69204;DHT22;56317;27.658;85.326;2024-02-21T05:38:49;31.30;99.90
69204;DHT22;56317;27.658;85.326;2024-02-21T05:41:17;30.50;99.90
69204;DHT22;56317;27.658;85.326;2024-02-21T05:43:44;30.80;99.90
69204;DHT22;56317;27.658;85.326;2024-02-21T05:46:12;31.60;99.90
69204;DHT22;56317;27.658;85.326;2024-02-21T05:48:39;33.10;99.90
69204;DHT22;56317;27.658;85.326;2024-02-21T05:51:06;33.70;99.90
69204;DHT22;56317;27.658;85.326;2024-02-21T05:53:34;33.40;99.90
69204;DHT22;56317;27.658;85.326;2024-02-21T05:56:04;33.00;99.90
69204;DHT22;56317;27.658;85.326;2024-02-21T05:58:34;32.80;99.90
69204;DHT22;56317;27.658;85.326;2024-02-21T06:01:01;32.60;99.90
69204;DHT22;56317;27.658;85.326;2024-02-21T06:03:30;32.20;99.90
69204;DHT22;56317;27.658;85.326;2024-02-21T06:05:59;31.70;99.90
69204;DHT22;56317;27.658;85.326;2024-02-21T06:08:26;31.00;99.90
69204;DHT22;56317;27.658;85.326;2024-02-21T06:10:54;30.70;99.90
69204;DHT22;56317;27.658;85.326;2024-02-21T06:13:22;30.00;99.90
69204;DHT22;56317;27.658;85.326;2024-02-21T06:15:50;29.40;99.90
69204;DHT22;56317;27.658;85.326;2024-02-21T06:18:18;28.70;99.90
69204;DHT22;56317;27.658;85.326;2024-02-21T06:20:45;28.40;99.90
69204;DHT22;56317;27.658;85.326;2024-02-21T06:23:14;27.80;99.90
69204;DHT22;56317;27.658;85.326;2024-02-21T06:25:42;27.70;99.90
69204;DHT22;56317;27.658;85.326;2024-02-21T06:28:09;27.40;99.90
69204;DHT22;56317;27.658;85.326;2024-02-21T06:30:37;26.30;99.90
69204;DHT22;56317;27.658;85.326;2024-02-21T06:33:07;26.60;99.90
69204;DHT22;56317;27.658;85.326;2024-02-21T06:35:35;27.00;99.90
69204;DHT22;56317;27.658;85.326;2024-02-21T06:38:03;26.20;99.90
69204;DHT22;56317;27.658;85.326;2024-02-21T06:40:31;26.30;99.90
69204;DHT22;56317;27.658;85.326;2024-02-21T06:43:05;26.70;99.90
69204;DHT22;56317;27.658;85.326;2024-02-21T06:45:32;25.70;99.90
69204;DHT22;56317;27.658;85.326;2024-02-21T06:47:59;26.30;99.90
69204;DHT22;56317;27.658;85.326;2024-02-21T06:50:28;26.40;99.90
69204;DHT22;56317;27.658;85.326;2024-02-21T06:52:55;27.20;99.90
69204;DHT22;56317;27.658;85.326;2024-02-21T06:55:23;28.50;99.90
69204;DHT22;56317;27.658;85.326;2024-02-21T06:57:51;29.30;99.90
69204;DHT22;56317;27.658;85.326;2024-02-21T07:00:19;29.00;99.90
69204;DHT22;56317;27.658;85.326;2024-02-21T07:02:46;29.80;99.90
69204;DHT22;56317;27.658;85.326;2024-02-21T07:05:15;30.10;99.90
69204;DHT22;56317;27.658;85.326;2024-02-21T07:07:42;31.40;99.90
69204;DHT22;56317;27.658;85.326;2024-02-21T07:10:10;32.20;99.90
69204;DHT22;56317;27.658;85.326;2024-02-21T07:12:37;32.80;99.90
69204;DHT22;56317;27.658;85.326;2024-02-21T07:15:17;33.30;99.90
69204;DHT22;56317;27.658;85.326;2024-02-21T07:17:53;35.10;99.90
69204;DHT22;56317;27.658;85.326;2024-02-21T07:20:22;37.80;99.90
69204;DHT22;56317;27.658;85.326;2024-02-21T07:22:51;38.70;99.90
69204;DHT22;56317;27.658;85.326;2024-02-21T07:25:20;37.30;99.90
69204;DHT22;56317;27.658;85.326;2024-02-21T07:27:47;36.70;99.90
69204;DHT22;56317;27.658;85.326;2024-02-21T07:30:15;35.10;99.90
69204;DHT22;56317;27.658;85.326;2024-02-21T07:32:42;33.70;99.90
69204;DHT22;56317;27.658;85.326;2024-02-21T07:35:09;31.90;99.90
69204;DHT22;56317;27.658;85.326;2024-02-21T07:37:38;30.40;99.90
69204;DHT22;56317;27.658;85.326;2024-02-21T07:40:12;29.60;99.90
69204;DHT22;56317;27.658;85.326;2024-02-21T07:42:40;30.30;99.90
69204;DHT22;56317;27.658;85.326;2024-02-21T07:45:08;30.30;99.90
69204;DHT22;56317;27.658;85.326;2024-02-21T07:47:37;30.00;99.90
69204;DHT22;56317;27.658;85.326;2024-02-21T07:50:06;29.90;99.90
69204;DHT22;56317;27.658;85.326;2024-02-21T07:52:35;31.30;99.90
69204;DHT22;56317;27.658;85.326;2024-02-21T07:55:05;31.00;99.90
69204;DHT22;56317;27.658;85.326;2024-02-21T07:57:33;30.00;99.90
69204;DHT22;56317;27.658;85.326;2024-02-21T08:00:00;29.30;99.90
69204;DHT22;56317;27.658;85.326;2024-02-21T08:02:33;29.20;99.90
69204;DHT22;56317;27.658;85.326;2024-02-21T08:05:02;29.20;99.90
69204;DHT22;56317;27.658;85.326;2024-02-21T08:07:36;29.40;99.90
69204;DHT22;56317;27.658;85.326;2024-02-21T08:10:04;29.60;99.90
69204;DHT22;56317;27.658;85.326;2024-02-21T08:12:34;29.80;99.90
69204;DHT22;56317;27.658;85.326;2024-02-21T08:15:01;29.80;99.90
69204;DHT22;56317;27.658;85.326;2024-02-21T08:17:30;29.60;99.90
69204;DHT22;56317;27.658;85.326;2024-02-21T08:20:04;29.10;99.90
69204;DHT22;56317;27.658;85.326;2024-02-21T08:22:31;28.80;99.90
69204;DHT22;56317;27.658;85.326;2024-02-21T08:24:59;29.60;99.90
69204;DHT22;56317;27.658;85.326;2024-02-21T08:27:26;29.40;99.90
69204;DHT22;56317;27.658;85.326;2024-02-21T08:46:23;31.00;99.90
69204;DHT22;56317;27.658;85.326;2024-02-21T08:48:52;31.20;99.90
69204;DHT22;56317;27.658;85.326;2024-02-21T08:51:22;30.60;99.90
69204;DHT22;56317;27.658;85.326;2024-02-21T08:53:50;30.50;99.90
69204;DHT22;56317;27.658;85.326;2024-02-21T09:08:00;34.70;99.90
69204;DHT22;56317;27.658;85.326;2024-02-21T09:10:30;31.00;99.90
69204;DHT22;56317;27.658;85.326;2024-02-21T09:12:58;30.40;99.90
69204;DHT22;56317;27.658;85.326;2024-02-21T09:15:25;30.40;99.90
69204;DHT22;56317;27.658;85.326;2024-02-21T09:17:53;32.20;99.90
69204;DHT22;56317;27.658;85.326;2024-02-21T09:20:20;33.70;99.90
69204;DHT22;56317;27.658;85.326;2024-02-21T09:22:48;34.50;99.90
69204;DHT22;56317;27.658;85.326;2024-02-21T09:25:15;33.90;99.90
69204;DHT22;56317;27.658;85.326;2024-02-21T09:27:45;32.10;99.90
69204;DHT22;56317;27.658;85.326;2024-02-21T09:30:12;30.20;99.90
69204;DHT22;56317;27.658;85.326;2024-02-21T09:32:44;29.30;99.90
69204;DHT22;56317;27.658;85.326;2024-02-21T09:35:11;27.60;99.90
69204;DHT22;56317;27.658;85.326;2024-02-21T09:37:39;26.90;99.90
69204;DHT22;56317;27.658;85.326;2024-02-21T09:40:07;25.90;99.90
69204;DHT22;56317;27.658;85.326;2024-02-21T09:42:38;25.00;99.90
69204;DHT22;56317;27.658;85.326;2024-02-21T09:45:07;24.50;99.90
69204;DHT22;56317;27.658;85.326;2024-02-21T09:47:50;24.00;99.90
69204;DHT22;56317;27.658;85.326;2024-02-21T09:50:20;23.80;99.90
69204;DHT22;56317;27.658;85.326;2024-02-21T09:52:49;23.80;99.90
69204;DHT22;56317;27.658;85.326;2024-02-21T09:55:17;24.00;99.90
69204;DHT22;56317;27.658;85.326;2024-02-21T09:57:45;23.90;99.90
69204;DHT22;56317;27.658;85.326;2024-02-21T10:00:14;24.20;99.90
69204;DHT22;56317;27.658;85.326;2024-02-21T10:02:51;24.40;99.90
69204;DHT22;56317;27.658;85.326;2024-02-21T10:05:18;24.00;99.90
69204;DHT22;56317;27.658;85.326;2024-02-21T10:07:45;24.20;99.90
69204;DHT22;56317;27.658;85.326;2024-02-21T10:10:14;24.40;99.90
69204;DHT22;56317;27.658;85.326;2024-02-21T10:12:52;24.40;99.90
69204;DHT22;56317;27.658;85.326;2024-02-21T10:15:22;24.40;99.90
69204;DHT22;56317;27.658;85.326;2024-02-21T10:18:00;24.20;99.90
69204;DHT22;56317;27.658;85.326;2024-02-21T10:20:28;24.60;99.90
69204;DHT22;56317;27.658;85.326;2024-02-21T10:23:02;25.00;99.90
69204;DHT22;56317;27.658;85.326;2024-02-21T10:25:30;25.00;99.90
69204;DHT22;56317;27.658;85.326;2024-02-21T10:27:58;24.90;99.90
69204;DHT22;56317;27.658;85.326;2024-02-21T10:30:25;24.80;99.90
69204;DHT22;56317;27.658;85.326;2024-02-21T10:32:57;24.40;99.90
69204;DHT22;56317;27.658;85.326;2024-02-21T10:35:32;24.20;99.90
69204;DHT22;56317;27.658;85.326;2024-02-21T10:38:00;23.70;99.90
69204;DHT22;56317;27.658;85.326;2024-02-21T10:40:29;23.60;99.90
69204;DHT22;56317;27.658;85.326;2024-02-21T10:43:00;23.10;99.90
69204;DHT22;56317;27.658;85.326;2024-02-21T10:45:34;22.90;99.90
69204;DHT22;56317;27.658;85.326;2024-02-21T10:48:24;22.60;99.90
69204;DHT22;56317;27.658;85.326;2024-02-21T10:54:01;22.50;99.90
69204;DHT22;56317;27.658;85.326;2024-02-21T10:56:33;22.50;99.90
69204;DHT22;56317;27.658;85.326;2024-02-21T10:59:08;22.60;99.90
69204;DHT22;56317;27.658;85.326;2024-02-21T11:01:35;22.90;99.90
69204;DHT22;56317;27.658;85.326;2024-02-21T11:04:07;22.90;99.90
69204;DHT22;56317;27.658;85.326;2024-02-21T11:06:37;22.80;99.90
69204;DHT22;56317;27.658;85.326;2024-02-21T11:09:08;22.30;99.90
69204;DHT22;56317;27.658;85.326;2024-02-21T11:11:44;21.70;99.90
69204;DHT22;56317;27.658;85.326;2024-02-21T11:14:21;21.30;99.90
69204;DHT22;56317;27.658;85.326;2024-02-21T11:16:49;20.90;99.90
69204;DHT22;56317;27.658;85.326;2024-02-21T11:19:26;20.50;99.90
69204;DHT22;56317;27.658;85.326;2024-02-21T11:21:55;20.30;99.90
69204;DHT22;56317;27.658;85.326;2024-02-21T11:24:32;20.00;99.90
69204;DHT22;56317;27.658;85.326;2024-02-21T11:27:15;19.70;99.90
69204;DHT22;56317;27.658;85.326;2024-02-21T11:29:53;19.50;99.90
69204;DHT22;56317;27.658;85.326;2024-02-21T11:32:22;19.20;99.90
69204;DHT22;56317;27.658;85.326;2024-02-21T11:35:05;19.10;99.90
69204;DHT22;56317;27.658;85.326;2024-02-21T11:37:35;18.80;99.90
69204;DHT22;56317;27.658;85.326;2024-02-21T11:40:06;18.60;99.90
69204;DHT22;56317;27.658;85.326;2024-02-21T11:42:36;18.40;99.90
69204;DHT22;56317;27.658;85.326;2024-02-21T11:45:03;18.20;99.90
69204;DHT22;56317;27.658;85.326;2024-02-21T11:47:30;18.00;99.90
69204;DHT22;56317;27.658;85.326;2024-02-21T11:49:58;17.80;99.90
69204;DHT22;56317;27.658;85.326;2024-02-21T11:52:30;17.60;99.90
69204;DHT22;56317;27.658;85.326;2024-02-21T11:54:57;17.50;99.90
69204;DHT22;56317;27.658;85.326;2024-02-21T11:57:31;17.40;99.90
69204;DHT22;56317;27.658;85.326;2024-02-21T11:59:58;17.30;99.90
69204;DHT22;56317;27.658;85.326;2024-02-21T12:02:26;17.20;99.90
69204;DHT22;56317;27.658;85.326;2024-02-21T12:04:54;17.10;99.90
69204;DHT22;56317;27.658;85.326;2024-02-21T12:07:24;17.00;99.90
69204;DHT22;56317;27.658;85.326;2024-02-21T12:09:51;16.90;99.90
69204;DHT22;56317;27.658;85.326;2024-02-21T12:12:20;16.70;99.90
69204;DHT22;56317;27.658;85.326;2024-02-21T12:14:53;16.60;99.90
69204;DHT22;56317;27.658;85.326;2024-02-21T12:17:20;16.40;99.90
69204;DHT22;56317;27.658;85.326;2024-02-21T12:19:48;16.10;99.90
69204;DHT22;56317;27.658;85.326;2024-02-21T12:22:20;16.10;99.90
69204;DHT22;56317;27.658;85.326;2024-02-21T12:24:50;16.00;99.90
69204;DHT22;56317;27.658;85.326;2024-02-21T12:27:17;16.00;99.90
69204;DHT22;56317;27.658;85.326;2024-02-21T12:29:44;15.90;99.90
69204;DHT22;56317;27.658;85.326;2024-02-21T12:32:13;15.90;99.90
69204;DHT22;56317;27.658;85.326;2024-02-21T12:34:41;15.70;99.90
69204;DHT22;56317;27.658;85.326;2024-02-21T12:37:08;15.70;99.90
69204;DHT22;56317;27.658;85.326;2024-02-21T12:39:36;15.70;99.90
69204;DHT22;56317;27.658;85.326;2024-02-21T12:42:05;15.80;99.90
69204;DHT22;56317;27.658;85.326;2024-02-21T12:44:32;15.80;99.90
69204;DHT22;56317;27.658;85.326;2024-02-21T12:47:00;15.70;1.00
69204;DHT22;56317;27.658;85.326;2024-02-21T12:49:27;15.60;1.00
69204;DHT22;56317;27.658;85.326;2024-02-21T12:51:56;15.50;65.90
69204;DHT22;56317;27.658;85.326;2024-02-21T12:54:23;15.40;99.90
69204;DHT22;56317;27.658;85.326;2024-02-21T12:56:50;15.40;99.90
69204;DHT22;56317;27.658;85.326;2024-02-21T12:59:21;15.30;99.90
69204;DHT22;56317;27.658;85.326;2024-02-21T13:01:48;15.30;1.00
69204;DHT22;56317;27.658;85.326;2024-02-21T13:04:17;15.20;1.00
69204;DHT22;56317;27.658;85.326;2024-02-21T13:06:44;15.10;62.70
69204;DHT22;56317;27.658;85.326;2024-02-21T13:09:15;15.10;1.00
69204;DHT22;56317;27.658;85.326;2024-02-21T13:11:42;15.10;1.00
69204;DHT22;56317;27.658;85.326;2024-02-21T13:14:11;15.10;99.90
69204;DHT22;56317;27.658;85.326;2024-02-21T13:16:38;15.10;99.90
69204;DHT22;56317;27.658;85.326;2024-02-21T13:19:11;15.10;99.90
69204;DHT22;56317;27.658;85.326;2024-02-21T13:21:40;15.10;99.90
69204;DHT22;56317;27.658;85.326;2024-02-21T13:24:07;15.10;70.00
69204;DHT22;56317;27.658;85.326;2024-02-21T13:26:34;15.00;99.90
69204;DHT22;56317;27.658;85.326;2024-02-21T13:29:02;14.90;99.90
69204;DHT22;56317;27.658;85.326;2024-02-21T13:31:29;14.90;1.00
69204;DHT22;56317;27.658;85.326;2024-02-21T13:33:56;14.80;92.00
69204;DHT22;56317;27.658;85.326;2024-02-21T13:36:23;14.70;1.00
69204;DHT22;56317;27.658;85.326;2024-02-21T13:38:50;14.70;99.90
69204;DHT22;56317;27.658;85.326;2024-02-21T13:41:19;14.60;1.00
69204;DHT22;56317;27.658;85.326;2024-02-21T13:43:48;14.60;1.00
69204;DHT22;56317;27.658;85.326;2024-02-21T13:46:15;14.60;99.90
69204;DHT22;56317;27.658;85.326;2024-02-21T13:48:42;14.60;99.90
69204;DHT22;56317;27.658;85.326;2024-02-21T13:51:09;14.50;1.00
69204;DHT22;56317;27.658;85.326;2024-02-21T13:53:38;14.50;99.90
69204;DHT22;56317;27.658;85.326;2024-02-21T13:56:05;14.50;1.00
69204;DHT22;56317;27.658;85.326;2024-02-21T13:58:32;14.50;99.90
69204;DHT22;56317;27.658;85.326;2024-02-21T14:00:59;14.50;1.00
69204;DHT22;56317;27.658;85.326;2024-02-21T14:03:27;14.50;1.00
69204;DHT22;56317;27.658;85.326;2024-02-21T14:05:54;14.50;96.00
69204;DHT22;56317;27.658;85.326;2024-02-21T14:08:21;14.40;99.90
69204;DHT22;56317;27.658;85.326;2024-02-21T14:10:50;14.30;13.40
69204;DHT22;56317;27.658;85.326;2024-02-21T14:13:17;14.30;1.00
69204;DHT22;56317;27.658;85.326;2024-02-21T14:15:45;14.30;1.00
69204;DHT22;56317;27.658;85.326;2024-02-21T14:18:14;14.30;1.00
69204;DHT22;56317;27.658;85.326;2024-02-21T14:20:43;14.30;1.00
69204;DHT22;56317;27.658;85.326;2024-02-21T14:23:10;14.30;1.00
69204;DHT22;56317;27.658;85.326;2024-02-21T14:25:39;14.30;1.00
69204;DHT22;56317;27.658;85.326;2024-02-21T14:28:09;14.20;99.90
69204;DHT22;56317;27.658;85.326;2024-02-21T14:30:36;14.10;99.90
69204;DHT22;56317;27.658;85.326;2024-02-21T14:33:03;14.00;1.00
69204;DHT22;56317;27.658;85.326;2024-02-21T14:35:30;13.90;99.90
69204;DHT22;56317;27.658;85.326;2024-02-21T14:37:57;13.80;99.90
69204;DHT22;56317;27.658;85.326;2024-02-21T14:40:28;13.70;99.90
69204;DHT22;56317;27.658;85.326;2024-02-21T14:42:57;13.60;37.50
69204;DHT22;56317;27.658;85.326;2024-02-21T14:45:24;13.40;99.90
69204;DHT22;56317;27.658;85.326;2024-02-21T14:47:52;13.20;1.00
69204;DHT22;56317;27.658;85.326;2024-02-21T14:50:20;12.90;99.90
69204;DHT22;56317;27.658;85.326;2024-02-21T14:52:47;12.80;99.90
69204;DHT22;56317;27.658;85.326;2024-02-21T14:55:14;12.80;99.90
69204;DHT22;56317;27.658;85.326;2024-02-21T14:57:45;13.10;99.90
69204;DHT22;56317;27.658;85.326;2024-02-21T15:00:13;13.30;1.00
69204;DHT22;56317;27.658;85.326;2024-02-21T15:02:42;13.50;99.90
69204;DHT22;56317;27.658;85.326;2024-02-21T15:05:10;13.50;99.90
69204;DHT22;56317;27.658;85.326;2024-02-21T15:07:38;13.50;99.90
69204;DHT22;56317;27.658;85.326;2024-02-21T15:10:07;13.40;1.00
69204;DHT22;56317;27.658;85.326;2024-02-21T15:12:37;13.30;1.00
69204;DHT22;56317;27.658;85.326;2024-02-21T15:15:04;13.20;1.00
69204;DHT22;56317;27.658;85.326;2024-02-21T15:17:32;13.00;1.00
69204;DHT22;56317;27.658;85.326;2024-02-21T15:20:00;12.80;1.00
69204;DHT22;56317;27.658;85.326;2024-02-21T15:22:27;12.80;1.00
69204;DHT22;56317;27.658;85.326;2024-02-21T15:24:56;12.90;1.00
69204;DHT22;56317;27.658;85.326;2024-02-21T15:27:24;12.80;1.00
69204;DHT22;56317;27.658;85.326;2024-02-21T15:29:53;12.60;1.00
69204;DHT22;56317;27.658;85.326;2024-02-21T15:32:22;12.40;1.00
69204;DHT22;56317;27.658;85.326;2024-02-21T15:34:52;12.20;1.00
69204;DHT22;56317;27.658;85.326;2024-02-21T15:37:26;12.10;1.00
69204;DHT22;56317;27.658;85.326;2024-02-21T15:39:56;12.10;1.00
69204;DHT22;56317;27.658;85.326;2024-02-21T15:42:28;12.10;1.00
69204;DHT22;56317;27.658;85.326;2024-02-21T15:44:58;12.10;1.00
69204;DHT22;56317;27.658;85.326;2024-02-21T15:47:31;12.00;1.00
69204;DHT22;56317;27.658;85.326;2024-02-21T15:50:00;11.90;1.00
69204;DHT22;56317;27.658;85.326;2024-02-21T15:52:28;12.00;1.00
69204;DHT22;56317;27.658;85.326;2024-02-21T15:54:57;11.80;1.00
69204;DHT22;56317;27.658;85.326;2024-02-21T15:57:29;11.70;1.00
69204;DHT22;56317;27.658;85.326;2024-02-21T15:59:58;11.70;1.00